Penns Park, Pennsylvania
Current Conditions -  °F | °C
As of 4:54 AM on Friday 28 Nov 2014 (Local Time) from KDYL Reporting Station
Clear Clear  
Wind Chill: 22°   Ceiling: Unl
Heat Index: 28°   Visibility: 10mi
Dew Point: 25°   Wind: 6mph
Humidity: 88%   Direction: 270°W
Pressure: 30.11"   Gusts: NA
Location:  40.27°N, 75°W
Report Text: KDYL 280954Z AUTO 27005KT 10SM CLR M02/M04 A3011 RMK AO2 SLP203 T10221039 $
Loading
Personal Weather Stations






























Interactive Weather Map New forecast layout! Learn more

10-Day Weather Forecast

Advertisements
Track Severe Weather on mobile